sensor_id;sensor_type;location;lat;lon;timestamp;temperature;humidity
66019;HTU21D;52787;51.084;5.816;2023-11-21T00:01:37;10.28;85.93
66019;HTU21D;52787;51.084;5.816;2023-11-21T00:04:03;10.27;86.17
66019;HTU21D;52787;51.084;5.816;2023-11-21T00:06:29;10.27;86.22
66019;HTU21D;52787;51.084;5.816;2023-11-21T00:08:56;10.28;86.29
66019;HTU21D;52787;51.084;5.816;2023-11-21T00:11:22;10.31;86.16
66019;HTU21D;52787;51.084;5.816;2023-11-21T00:13:48;10.35;86.09
66019;HTU21D;52787;51.084;5.816;2023-11-21T00:16:13;10.34;86.11
66019;HTU21D;52787;51.084;5.816;2023-11-21T00:18:39;10.36;86.11
66019;HTU21D;52787;51.084;5.816;2023-11-21T00:21:05;10.35;86.26
66019;HTU21D;52787;51.084;5.816;2023-11-21T00:23:31;10.37;86.32
66019;HTU21D;52787;51.084;5.816;2023-11-21T00:25:57;10.41;86.43
66019;HTU21D;52787;51.084;5.816;2023-11-21T00:28:23;10.45;86.48
66019;HTU21D;52787;51.084;5.816;2023-11-21T00:30:49;10.50;86.25
66019;HTU21D;52787;51.084;5.816;2023-11-21T00:33:14;10.56;86.00
66019;HTU21D;52787;51.084;5.816;2023-11-21T00:35:40;10.59;85.70
66019;HTU21D;52787;51.084;5.816;2023-11-21T00:38:06;10.58;85.76
66019;HTU21D;52787;51.084;5.816;2023-11-21T00:40:33;10.58;85.77
66019;HTU21D;52787;51.084;5.816;2023-11-21T00:42:59;10.58;85.77
66019;HTU21D;52787;51.084;5.816;2023-11-21T00:45:26;10.63;85.69
66019;HTU21D;52787;51.084;5.816;2023-11-21T00:47:52;10.67;85.57
66019;HTU21D;52787;51.084;5.816;2023-11-21T00:50:18;10.71;85.22
66019;HTU21D;52787;51.084;5.816;2023-11-21T00:52:44;10.72;85.25
66019;HTU21D;52787;51.084;5.816;2023-11-21T00:55:10;10.77;85.12
66019;HTU21D;52787;51.084;5.816;2023-11-21T00:57:37;10.79;84.93
66019;HTU21D;52787;51.084;5.816;2023-11-21T01:00:03;10.77;84.84
66019;HTU21D;52787;51.084;5.816;2023-11-21T01:02:38;10.77;84.99
66019;HTU21D;52787;51.084;5.816;2023-11-21T01:05:05;10.77;84.97
66019;HTU21D;52787;51.084;5.816;2023-11-21T01:07:33;10.77;85.16
66019;HTU21D;52787;51.084;5.816;2023-11-21T01:09:58;10.75;85.10
66019;HTU21D;52787;51.084;5.816;2023-11-21T01:12:24;10.79;85.16
66019;HTU21D;52787;51.084;5.816;2023-11-21T01:14:50;10.75;84.93
66019;HTU21D;52787;51.084;5.816;2023-11-21T01:17:16;10.73;85.13
66019;HTU21D;52787;51.084;5.816;2023-11-21T01:19:43;10.71;85.34
66019;HTU21D;52787;51.084;5.816;2023-11-21T01:22:09;10.74;85.59
66019;HTU21D;52787;51.084;5.816;2023-11-21T01:24:37;10.72;85.69
66019;HTU21D;52787;51.084;5.816;2023-11-21T01:27:03;10.71;85.89
66019;HTU21D;52787;51.084;5.816;2023-11-21T01:29:30;10.71;86.00
66019;HTU21D;52787;51.084;5.816;2023-11-21T01:31:55;10.69;86.07
66019;HTU21D;52787;51.084;5.816;2023-11-21T01:34:23;10.71;86.16
66019;HTU21D;52787;51.084;5.816;2023-11-21T01:36:49;10.70;86.38
66019;HTU21D;52787;51.084;5.816;2023-11-21T01:39:15;10.71;86.43
66019;HTU21D;52787;51.084;5.816;2023-11-21T01:41:45;10.72;86.35
66019;HTU21D;52787;51.084;5.816;2023-11-21T01:44:10;10.70;86.33
66019;HTU21D;52787;51.084;5.816;2023-11-21T01:46:36;10.70;86.44
66019;HTU21D;52787;51.084;5.816;2023-11-21T01:49:04;10.64;86.50
66019;HTU21D;52787;51.084;5.816;2023-11-21T01:51:30;10.56;86.76
66019;HTU21D;52787;51.084;5.816;2023-11-21T01:53:56;10.53;87.19
66019;HTU21D;52787;51.084;5.816;2023-11-21T01:56:23;10.52;87.28
66019;HTU21D;52787;51.084;5.816;2023-11-21T01:58:49;10.51;87.78
66019;HTU21D;52787;51.084;5.816;2023-11-21T02:01:15;10.55;87.70
66019;HTU21D;52787;51.084;5.816;2023-11-21T02:03:40;10.57;87.51
66019;HTU21D;52787;51.084;5.816;2023-11-21T02:06:06;10.52;87.49
66019;HTU21D;52787;51.084;5.816;2023-11-21T02:08:34;10.51;87.52
66019;HTU21D;52787;51.084;5.816;2023-11-21T02:10:59;10.46;87.55
66019;HTU21D;52787;51.084;5.816;2023-11-21T02:13:25;10.43;87.74
66019;HTU21D;52787;51.084;5.816;2023-11-21T02:15:51;10.40;88.08
66019;HTU21D;52787;51.084;5.816;2023-11-21T02:18:19;10.41;88.22
66019;HTU21D;52787;51.084;5.816;2023-11-21T02:20:45;10.43;88.33
66019;HTU21D;52787;51.084;5.816;2023-11-21T02:23:12;10.45;88.38
66019;HTU21D;52787;51.084;5.816;2023-11-21T02:25:38;10.50;88.17
66019;HTU21D;52787;51.084;5.816;2023-11-21T02:28:04;10.52;87.89
66019;HTU21D;52787;51.084;5.816;2023-11-21T02:30:30;10.54;87.76
66019;HTU21D;52787;51.084;5.816;2023-11-21T02:33:02;10.55;87.78
66019;HTU21D;52787;51.084;5.816;2023-11-21T02:35:28;10.52;87.64
66019;HTU21D;52787;51.084;5.816;2023-11-21T02:37:56;10.52;87.61
66019;HTU21D;52787;51.084;5.816;2023-11-21T02:40:22;10.52;87.65
66019;HTU21D;52787;51.084;5.816;2023-11-21T02:42:50;10.54;87.51
66019;HTU21D;52787;51.084;5.816;2023-11-21T02:45:17;10.55;87.41
66019;HTU21D;52787;51.084;5.816;2023-11-21T02:47:44;10.56;87.16
66019;HTU21D;52787;51.084;5.816;2023-11-21T02:50:11;10.57;87.06
66019;HTU21D;52787;51.084;5.816;2023-11-21T02:52:37;10.54;87.10
66019;HTU21D;52787;51.084;5.816;2023-11-21T02:55:04;10.53;87.12
66019;HTU21D;52787;51.084;5.816;2023-11-21T02:57:30;10.51;87.15
66019;HTU21D;52787;51.084;5.816;2023-11-21T02:59:56;10.56;87.12
66019;HTU21D;52787;51.084;5.816;2023-11-21T03:02:22;10.60;87.05
66019;HTU21D;52787;51.084;5.816;2023-11-21T03:04:48;10.62;86.86
66019;HTU21D;52787;51.084;5.816;2023-11-21T03:07:15;10.59;86.84
66019;HTU21D;52787;51.084;5.816;2023-11-21T03:09:41;10.58;87.03
66019;HTU21D;52787;51.084;5.816;2023-11-21T03:12:08;10.62;87.19
66019;HTU21D;52787;51.084;5.816;2023-11-21T03:14:35;10.63;87.08
66019;HTU21D;52787;51.084;5.816;2023-11-21T03:17:01;10.68;86.95
66019;HTU21D;52787;51.084;5.816;2023-11-21T03:19:27;10.69;86.73
66019;HTU21D;52787;51.084;5.816;2023-11-21T03:21:52;10.70;86.47
66019;HTU21D;52787;51.084;5.816;2023-11-21T03:24:19;10.67;86.52
66019;HTU21D;52787;51.084;5.816;2023-11-21T03:26:46;10.66;86.67
66019;HTU21D;52787;51.084;5.816;2023-11-21T03:29:12;10.65;86.91
66019;HTU21D;52787;51.084;5.816;2023-11-21T03:31:39;10.64;86.94
66019;HTU21D;52787;51.084;5.816;2023-11-21T03:34:05;10.65;87.06
66019;HTU21D;52787;51.084;5.816;2023-11-21T03:36:32;10.67;87.00
66019;HTU21D;52787;51.084;5.816;2023-11-21T03:38:57;10.65;86.88
66019;HTU21D;52787;51.084;5.816;2023-11-21T03:41:23;10.60;87.06
66019;HTU21D;52787;51.084;5.816;2023-11-21T03:43:50;10.62;87.21
66019;HTU21D;52787;51.084;5.816;2023-11-21T03:46:16;10.62;87.37
66019;HTU21D;52787;51.084;5.816;2023-11-21T03:48:42;10.66;87.46
66019;HTU21D;52787;51.084;5.816;2023-11-21T03:51:07;10.67;87.36
66019;HTU21D;52787;51.084;5.816;2023-11-21T03:53:33;10.67;87.28
66019;HTU21D;52787;51.084;5.816;2023-11-21T03:56:02;10.65;87.35
66019;HTU21D;52787;51.084;5.816;2023-11-21T03:58:29;10.63;87.67
66019;HTU21D;52787;51.084;5.816;2023-11-21T04:00:55;10.59;87.90
66019;HTU21D;52787;51.084;5.816;2023-11-21T04:03:21;10.66;88.06
66019;HTU21D;52787;51.084;5.816;2023-11-21T04:05:46;10.69;88.04
66019;HTU21D;52787;51.084;5.816;2023-11-21T04:08:12;10.73;87.87
66019;HTU21D;52787;51.084;5.816;2023-11-21T04:10:38;10.78;87.72
66019;HTU21D;52787;51.084;5.816;2023-11-21T04:13:05;10.77;87.51
66019;HTU21D;52787;51.084;5.816;2023-11-21T04:15:32;10.73;87.74
66019;HTU21D;52787;51.084;5.816;2023-11-21T04:17:58;10.73;87.89
66019;HTU21D;52787;51.084;5.816;2023-11-21T04:20:24;10.70;87.93
66019;HTU21D;52787;51.084;5.816;2023-11-21T04:22:50;10.72;87.96
66019;HTU21D;52787;51.084;5.816;2023-11-21T04:25:16;10.69;88.18
66019;HTU21D;52787;51.084;5.816;2023-11-21T04:27:44;10.70;88.23
66019;HTU21D;52787;51.084;5.816;2023-11-21T04:30:14;10.68;88.18
66019;HTU21D;52787;51.084;5.816;2023-11-21T04:32:40;10.67;88.18
66019;HTU21D;52787;51.084;5.816;2023-11-21T04:35:07;10.63;88.37
66019;HTU21D;52787;51.084;5.816;2023-11-21T04:37:36;10.62;88.61
66019;HTU21D;52787;51.084;5.816;2023-11-21T04:40:03;10.58;88.67
66019;HTU21D;52787;51.084;5.816;2023-11-21T04:42:35;10.56;88.81
66019;HTU21D;52787;51.084;5.816;2023-11-21T04:45:02;10.58;88.86
66019;HTU21D;52787;51.084;5.816;2023-11-21T04:47:32;10.58;88.73
66019;HTU21D;52787;51.084;5.816;2023-11-21T04:49:58;10.54;88.83
66019;HTU21D;52787;51.084;5.816;2023-11-21T04:52:24;10.51;89.02
66019;HTU21D;52787;51.084;5.816;2023-11-21T04:54:50;10.50;89.21
66019;HTU21D;52787;51.084;5.816;2023-11-21T04:57:15;10.46;89.25
66019;HTU21D;52787;51.084;5.816;2023-11-21T04:59:43;10.49;89.29
66019;HTU21D;52787;51.084;5.816;2023-11-21T05:02:09;10.49;89.34
66019;HTU21D;52787;51.084;5.816;2023-11-21T05:04:35;10.51;89.30
66019;HTU21D;52787;51.084;5.816;2023-11-21T05:07:00;10.54;89.25
66019;HTU21D;52787;51.084;5.816;2023-11-21T05:09:26;10.58;89.15
66019;HTU21D;52787;51.084;5.816;2023-11-21T05:11:54;10.56;88.95
66019;HTU21D;52787;51.084;5.816;2023-11-21T05:14:19;10.55;89.02
66019;HTU21D;52787;51.084;5.816;2023-11-21T05:16:46;10.49;89.09
66019;HTU21D;52787;51.084;5.816;2023-11-21T05:19:12;10.46;89.40
66019;HTU21D;52787;51.084;5.816;2023-11-21T05:21:38;10.44;89.49
66019;HTU21D;52787;51.084;5.816;2023-11-21T05:24:04;10.44;89.63
66019;HTU21D;52787;51.084;5.816;2023-11-21T05:26:30;10.45;89.78
66019;HTU21D;52787;51.084;5.816;2023-11-21T05:28:56;10.46;89.78
66019;HTU21D;52787;51.084;5.816;2023-11-21T05:31:22;10.46;89.88
66019;HTU21D;52787;51.084;5.816;2023-11-21T05:33:48;10.44;89.80
66019;HTU21D;52787;51.084;5.816;2023-11-21T05:36:14;10.45;89.84
66019;HTU21D;52787;51.084;5.816;2023-11-21T05:38:39;10.49;89.72
66019;HTU21D;52787;51.084;5.816;2023-11-21T05:41:07;10.51;89.57
66019;HTU21D;52787;51.084;5.816;2023-11-21T05:43:33;10.53;89.19
66019;HTU21D;52787;51.084;5.816;2023-11-21T05:46:01;10.51;89.18
66019;HTU21D;52787;51.084;5.816;2023-11-21T05:48:26;10.50;89.16
66019;HTU21D;52787;51.084;5.816;2023-11-21T05:50:52;10.50;89.40
66019;HTU21D;52787;51.084;5.816;2023-11-21T05:53:18;10.50;89.51
66019;HTU21D;52787;51.084;5.816;2023-11-21T05:55:44;10.52;89.39
66019;HTU21D;52787;51.084;5.816;2023-11-21T05:58:10;10.54;89.50
66019;HTU21D;52787;51.084;5.816;2023-11-21T06:00:36;10.59;89.30
66019;HTU21D;52787;51.084;5.816;2023-11-21T06:03:02;10.58;89.05
66019;HTU21D;52787;51.084;5.816;2023-11-21T06:05:28;10.55;89.33
66019;HTU21D;52787;51.084;5.816;2023-11-21T06:07:57;10.57;89.50
66019;HTU21D;52787;51.084;5.816;2023-11-21T06:10:24;10.59;89.50
66019;HTU21D;52787;51.084;5.816;2023-11-21T06:12:50;10.62;89.21
66019;HTU21D;52787;51.084;5.816;2023-11-21T06:15:16;10.59;88.99
66019;HTU21D;52787;51.084;5.816;2023-11-21T06:17:45;10.58;88.88
66019;HTU21D;52787;51.084;5.816;2023-11-21T06:20:15;10.54;89.12
66019;HTU21D;52787;51.084;5.816;2023-11-21T06:22:45;10.52;89.05
66019;HTU21D;52787;51.084;5.816;2023-11-21T06:25:13;10.53;88.97
66019;HTU21D;52787;51.084;5.816;2023-11-21T06:27:44;10.56;88.89
66019;HTU21D;52787;51.084;5.816;2023-11-21T06:30:12;10.56;88.80
66019;HTU21D;52787;51.084;5.816;2023-11-21T06:32:39;10.54;88.83
66019;HTU21D;52787;51.084;5.816;2023-11-21T06:35:06;10.55;89.09
66019;HTU21D;52787;51.084;5.816;2023-11-21T06:37:33;10.57;89.06
66019;HTU21D;52787;51.084;5.816;2023-11-21T06:40:00;10.62;88.86
66019;HTU21D;52787;51.084;5.816;2023-11-21T06:42:27;10.66;88.61
66019;HTU21D;52787;51.084;5.816;2023-11-21T06:44:54;10.65;88.67
66019;HTU21D;52787;51.084;5.816;2023-11-21T06:47:23;10.67;88.54
66019;HTU21D;52787;51.084;5.816;2023-11-21T06:49:55;10.71;88.41
66019;HTU21D;52787;51.084;5.816;2023-11-21T06:52:20;10.71;88.14
66019;HTU21D;52787;51.084;5.816;2023-11-21T06:54:47;10.68;88.14
66019;HTU21D;52787;51.084;5.816;2023-11-21T06:57:15;10.68;88.48
66019;HTU21D;52787;51.084;5.816;2023-11-21T06:59:41;10.69;88.54
66019;HTU21D;52787;51.084;5.816;2023-11-21T07:02:07;10.71;88.55
66019;HTU21D;52787;51.084;5.816;2023-11-21T07:04:33;10.71;88.51
66019;HTU21D;52787;51.084;5.816;2023-11-21T07:06:59;10.75;88.40
66019;HTU21D;52787;51.084;5.816;2023-11-21T07:09:26;10.74;88.16
66019;HTU21D;52787;51.084;5.816;2023-11-21T07:11:52;10.74;88.17
66019;HTU21D;52787;51.084;5.816;2023-11-21T07:14:18;10.73;88.28
66019;HTU21D;52787;51.084;5.816;2023-11-21T07:16:46;10.78;88.25
66019;HTU21D;52787;51.084;5.816;2023-11-21T07:19:12;10.77;88.16
66019;HTU21D;52787;51.084;5.816;2023-11-21T07:21:39;10.79;88.26
66019;HTU21D;52787;51.084;5.816;2023-11-21T07:24:06;10.82;88.26
66019;HTU21D;52787;51.084;5.816;2023-11-21T07:26:34;10.86;88.14
66019;HTU21D;52787;51.084;5.816;2023-11-21T07:29:01;10.92;88.05
66019;HTU21D;52787;51.084;5.816;2023-11-21T07:31:31;10.95;88.04
66019;HTU21D;52787;51.084;5.816;2023-11-21T07:34:00;10.97;87.97
66019;HTU21D;52787;51.084;5.816;2023-11-21T07:36:26;11.00;88.08
66019;HTU21D;52787;51.084;5.816;2023-11-21T07:38:53;11.03;87.99
66019;HTU21D;52787;51.084;5.816;2023-11-21T07:41:19;11.08;87.72
66019;HTU21D;52787;51.084;5.816;2023-11-21T07:43:46;11.08;87.56
66019;HTU21D;52787;51.084;5.816;2023-11-21T07:46:12;11.08;87.22
66019;HTU21D;52787;51.084;5.816;2023-11-21T07:48:42;11.07;87.30
66019;HTU21D;52787;51.084;5.816;2023-11-21T07:51:09;11.00;87.35
66019;HTU21D;52787;51.084;5.816;2023-11-21T07:53:36;10.99;87.61
66019;HTU21D;52787;51.084;5.816;2023-11-21T07:56:06;10.98;87.80
66019;HTU21D;52787;51.084;5.816;2023-11-21T07:58:34;10.98;87.72
66019;HTU21D;52787;51.084;5.816;2023-11-21T08:01:03;10.98;87.91
66019;HTU21D;52787;51.084;5.816;2023-11-21T08:03:30;11.01;87.87
66019;HTU21D;52787;51.084;5.816;2023-11-21T08:05:57;11.02;87.83
66019;HTU21D;52787;51.084;5.816;2023-11-21T08:08:26;11.05;87.73
66019;HTU21D;52787;51.084;5.816;2023-11-21T08:10:52;11.04;87.50
66019;HTU21D;52787;51.084;5.816;2023-11-21T08:13:26;11.03;87.56
66019;HTU21D;52787;51.084;5.816;2023-11-21T08:15:57;11.03;87.83
66019;HTU21D;52787;51.084;5.816;2023-11-21T08:18:30;11.11;87.65
66019;HTU21D;52787;51.084;5.816;2023-11-21T08:20:57;11.11;87.49
66019;HTU21D;52787;51.084;5.816;2023-11-21T08:23:23;11.11;87.44
66019;HTU21D;52787;51.084;5.816;2023-11-21T08:25:53;11.12;87.36
66019;HTU21D;52787;51.084;5.816;2023-11-21T08:28:19;11.11;87.45
66019;HTU21D;52787;51.084;5.816;2023-11-21T08:30:45;11.13;87.51
66019;HTU21D;52787;51.084;5.816;2023-11-21T08:33:11;11.14;87.55
66019;HTU21D;52787;51.084;5.816;2023-11-21T08:35:38;11.14;87.54
66019;HTU21D;52787;51.084;5.816;2023-11-21T08:38:04;11.13;87.65
66019;HTU21D;52787;51.084;5.816;2023-11-21T08:40:30;11.19;87.61
66019;HTU21D;52787;51.084;5.816;2023-11-21T08:42:56;11.24;87.18
66019;HTU21D;52787;51.084;5.816;2023-11-21T08:45:24;11.24;87.21
66019;HTU21D;52787;51.084;5.816;2023-11-21T08:47:51;11.25;86.98
66019;HTU21D;52787;51.084;5.816;2023-11-21T08:50:17;11.23;87.12
66019;HTU21D;52787;51.084;5.816;2023-11-21T08:52:44;11.25;87.35
66019;HTU21D;52787;51.084;5.816;2023-11-21T08:55:14;11.29;87.39
66019;HTU21D;52787;51.084;5.816;2023-11-21T08:57:43;11.37;87.28
66019;HTU21D;52787;51.084;5.816;2023-11-21T09:00:10;11.44;87.25
66019;HTU21D;52787;51.084;5.816;2023-11-21T09:02:38;11.51;86.93
66019;HTU21D;52787;51.084;5.816;2023-11-21T09:05:07;11.53;86.58
66019;HTU21D;52787;51.084;5.816;2023-11-21T09:07:37;11.53;86.48
66019;HTU21D;52787;51.084;5.816;2023-11-21T09:10:04;11.53;86.62
66019;HTU21D;52787;51.084;5.816;2023-11-21T09:12:35;11.56;86.61
66019;HTU21D;52787;51.084;5.816;2023-11-21T09:15:06;11.60;86.67
66019;HTU21D;52787;51.084;5.816;2023-11-21T09:17:33;11.64;86.47
66019;HTU21D;52787;51.084;5.816;2023-11-21T09:20:00;11.67;86.51
66019;HTU21D;52787;51.084;5.816;2023-11-21T09:22:26;11.71;86.58
66019;HTU21D;52787;51.084;5.816;2023-11-21T09:24:52;11.81;86.61
66019;HTU21D;52787;51.084;5.816;2023-11-21T09:27:19;11.86;86.14
66019;HTU21D;52787;51.084;5.816;2023-11-21T09:29:47;11.88;85.93
66019;HTU21D;52787;51.084;5.816;2023-11-21T09:32:13;11.85;86.16
66019;HTU21D;52787;51.084;5.816;2023-11-21T09:34:44;11.86;86.16
66019;HTU21D;52787;51.084;5.816;2023-11-21T09:37:10;11.83;86.41
66019;HTU21D;52787;51.084;5.816;2023-11-21T09:39:36;11.84;86.43
66019;HTU21D;52787;51.084;5.816;2023-11-21T09:42:11;11.85;86.48
66019;HTU21D;52787;51.084;5.816;2023-11-21T09:45:03;11.88;86.58
66019;HTU21D;52787;51.084;5.816;2023-11-21T09:47:35;11.86;86.61
66019;HTU21D;52787;51.084;5.816;2023-11-21T09:50:05;11.91;87.06
66019;HTU21D;52787;51.084;5.816;2023-11-21T09:53:04;11.92;86.93
66019;HTU21D;52787;51.084;5.816;2023-11-21T09:55:50;11.91;86.74
66019;HTU21D;52787;51.084;5.816;2023-11-21T09:58:18;11.91;86.81
66019;HTU21D;52787;51.084;5.816;2023-11-21T10:00:53;11.93;86.91
66019;HTU21D;52787;51.084;5.816;2023-11-21T10:03:21;11.97;87.19
66019;HTU21D;52787;51.084;5.816;2023-11-21T10:05:50;12.02;86.78
66019;HTU21D;52787;51.084;5.816;2023-11-21T10:08:16;12.02;86.41
66019;HTU21D;52787;51.084;5.816;2023-11-21T10:10:46;12.00;86.38
66019;HTU21D;52787;51.084;5.816;2023-11-21T10:13:15;11.93;86.25
66019;HTU21D;52787;51.084;5.816;2023-11-21T10:15:49;11.91;86.67
66019;HTU21D;52787;51.084;5.816;2023-11-21T10:18:17;11.91;86.69
66019;HTU21D;52787;51.084;5.816;2023-11-21T10:20:44;11.90;86.70
66019;HTU21D;52787;51.084;5.816;2023-11-21T10:23:18;11.94;87.04
66019;HTU21D;52787;51.084;5.816;2023-11-21T10:25:45;12.00;86.93
66019;HTU21D;52787;51.084;5.816;2023-11-21T10:28:10;12.05;86.98
66019;HTU21D;52787;51.084;5.816;2023-11-21T10:30:38;12.07;86.67
66019;HTU21D;52787;51.084;5.816;2023-11-21T10:33:06;12.08;86.58
66019;HTU21D;52787;51.084;5.816;2023-11-21T10:35:46;12.06;86.83
66019;HTU21D;52787;51.084;5.816;2023-11-21T10:38:18;12.07;86.96
66019;HTU21D;52787;51.084;5.816;2023-11-21T10:40:46;12.11;87.08
66019;HTU21D;52787;51.084;5.816;2023-11-21T10:43:13;12.14;86.80
66019;HTU21D;52787;51.084;5.816;2023-11-21T10:45:43;12.10;86.93
66019;HTU21D;52787;51.084;5.816;2023-11-21T10:48:12;12.12;87.05
66019;HTU21D;52787;51.084;5.816;2023-11-21T10:50:45;12.11;86.90
66019;HTU21D;52787;51.084;5.816;2023-11-21T10:53:11;12.14;87.27
66019;HTU21D;52787;51.084;5.816;2023-11-21T10:55:40;12.31;87.22
66019;HTU21D;52787;51.084;5.816;2023-11-21T10:58:07;12.42;86.51
66019;HTU21D;52787;51.084;5.816;2023-11-21T11:00:37;12.42;86.35
66019;HTU21D;52787;51.084;5.816;2023-11-21T11:03:06;12.35;86.12
66019;HTU21D;52787;51.084;5.816;2023-11-21T11:05:40;12.30;86.36
66019;HTU21D;52787;51.084;5.816;2023-11-21T11:08:19;12.31;86.65
66019;HTU21D;52787;51.084;5.816;2023-11-21T11:10:51;12.37;86.63
66019;HTU21D;52787;51.084;5.816;2023-11-21T11:13:18;12.43;86.48
66019;HTU21D;52787;51.084;5.816;2023-11-21T11:15:48;12.45;86.36
66019;HTU21D;52787;51.084;5.816;2023-11-21T11:18:15;12.43;86.38
66019;HTU21D;52787;51.084;5.816;2023-11-21T11:20:45;12.42;86.64
66019;HTU21D;52787;51.084;5.816;2023-11-21T11:23:49;12.48;86.80
66019;HTU21D;52787;51.084;5.816;2023-11-21T11:32:36;12.64;86.30
66019;HTU21D;52787;51.084;5.816;2023-11-21T11:35:33;12.65;86.22
66019;HTU21D;52787;51.084;5.816;2023-11-21T11:38:02;12.67;86.05
66019;HTU21D;52787;51.084;5.816;2023-11-21T11:40:45;12.62;86.06
66019;HTU21D;52787;51.084;5.816;2023-11-21T11:43:12;12.59;85.97
66019;HTU21D;52787;51.084;5.816;2023-11-21T11:45:38;12.58;86.29
66019;HTU21D;52787;51.084;5.816;2023-11-21T11:48:08;12.56;86.45
66019;HTU21D;52787;51.084;5.816;2023-11-21T11:51:00;12.58;86.68
66019;HTU21D;52787;51.084;5.816;2023-11-21T11:53:34;12.58;86.75
66019;HTU21D;52787;51.084;5.816;2023-11-21T11:58:58;12.56;86.80
66019;HTU21D;52787;51.084;5.816;2023-11-21T12:01:26;12.56;86.93
66019;HTU21D;52787;51.084;5.816;2023-11-21T12:06:43;12.62;87.12
66019;HTU21D;52787;51.084;5.816;2023-11-21T12:09:22;12.69;86.89
66019;HTU21D;52787;51.084;5.816;2023-11-21T12:11:49;12.71;86.77
66019;HTU21D;52787;51.084;5.816;2023-11-21T12:14:16;12.73;86.51
66019;HTU21D;52787;51.084;5.816;2023-11-21T12:16:43;12.74;86.53
66019;HTU21D;52787;51.084;5.816;2023-11-21T12:19:11;12.70;86.29
66019;HTU21D;52787;51.084;5.816;2023-11-21T12:21:38;12.64;86.31
66019;HTU21D;52787;51.084;5.816;2023-11-21T12:24:07;12.62;86.69
66019;HTU21D;52787;51.084;5.816;2023-11-21T12:26:35;12.62;86.83
66019;HTU21D;52787;51.084;5.816;2023-11-21T12:29:02;12.65;86.77
66019;HTU21D;52787;51.084;5.816;2023-11-21T12:31:30;12.67;86.76
66019;HTU21D;52787;51.084;5.816;2023-11-21T12:33:56;12.70;86.74
66019;HTU21D;52787;51.084;5.816;2023-11-21T12:36:23;12.74;86.58
66019;HTU21D;52787;51.084;5.816;2023-11-21T12:38:51;12.73;86.57
66019;HTU21D;52787;51.084;5.816;2023-11-21T12:41:16;12.75;86.70
66019;HTU21D;52787;51.084;5.816;2023-11-21T12:43:43;12.79;86.61
66019;HTU21D;52787;51.084;5.816;2023-11-21T12:46:10;12.84;86.62
66019;HTU21D;52787;51.084;5.816;2023-11-21T12:48:41;12.86;86.50
66019;HTU21D;52787;51.084;5.816;2023-11-21T12:51:12;12.82;86.57
66019;HTU21D;52787;51.084;5.816;2023-11-21T12:53:40;12.79;86.51
66019;HTU21D;52787;51.084;5.816;2023-11-21T12:56:11;12.69;86.75
66019;HTU21D;52787;51.084;5.816;2023-11-21T12:58:39;12.59;87.09
66019;HTU21D;52787;51.084;5.816;2023-11-21T13:01:06;12.53;87.54
66019;HTU21D;52787;51.084;5.816;2023-11-21T13:03:40;12.49;87.80
66019;HTU21D;52787;51.084;5.816;2023-11-21T13:06:08;12.41;87.72
66019;HTU21D;52787;51.084;5.816;2023-11-21T13:08:34;12.34;88.11
66019;HTU21D;52787;51.084;5.816;2023-11-21T13:11:00;12.30;88.44
66019;HTU21D;52787;51.084;5.816;2023-11-21T13:13:28;12.36;88.63
66019;HTU21D;52787;51.084;5.816;2023-11-21T13:15:58;12.46;88.41
66019;HTU21D;52787;51.084;5.816;2023-11-21T13:18:30;12.46;88.15
66019;HTU21D;52787;51.084;5.816;2023-11-21T13:20:58;12.46;88.11
66019;HTU21D;52787;51.084;5.816;2023-11-21T13:23:25;12.48;88.12
66019;HTU21D;52787;51.084;5.816;2023-11-21T13:25:53;12.50;88.12
66019;HTU21D;52787;51.084;5.816;2023-11-21T13:28:19;12.50;87.85
66019;HTU21D;52787;51.084;5.816;2023-11-21T13:30:48;12.47;87.83
66019;HTU21D;52787;51.084;5.816;2023-11-21T13:33:14;12.46;87.94
66019;HTU21D;52787;51.084;5.816;2023-11-21T13:35:53;12.46;87.84
66019;HTU21D;52787;51.084;5.816;2023-11-21T13:38:19;12.49;87.84
66019;HTU21D;52787;51.084;5.816;2023-11-21T13:40:55;12.53;87.70
66019;HTU21D;52787;51.084;5.816;2023-11-21T13:43:23;12.59;87.75
66019;HTU21D;52787;51.084;5.816;2023-11-21T13:45:52;12.63;87.48
66019;HTU21D;52787;51.084;5.816;2023-11-21T13:48:40;12.60;87.22
66019;HTU21D;52787;51.084;5.816;2023-11-21T13:51:11;12.56;87.38
66019;HTU21D;52787;51.084;5.816;2023-11-21T13:53:44;12.52;87.44
66019;HTU21D;52787;51.084;5.816;2023-11-21T13:56:13;12.48;87.54
66019;HTU21D;52787;51.084;5.816;2023-11-21T13:58:43;12.43;87.69
66019;HTU21D;52787;51.084;5.816;2023-11-21T14:01:19;12.38;88.01
66019;HTU21D;52787;51.084;5.816;2023-11-21T14:03:55;12.36;88.06
66019;HTU21D;52787;51.084;5.816;2023-11-21T14:06:35;12.35;88.21
66019;HTU21D;52787;51.084;5.816;2023-11-21T14:09:23;12.40;88.17
66019;HTU21D;52787;51.084;5.816;2023-11-21T14:11:58;12.40;87.97
66019;HTU21D;52787;51.084;5.816;2023-11-21T14:14:27;12.40;87.96
66019;HTU21D;52787;51.084;5.816;2023-11-21T14:16:53;12.40;87.88
66019;HTU21D;52787;51.084;5.816;2023-11-21T14:19:21;12.40;87.70
66019;HTU21D;52787;51.084;5.816;2023-11-21T14:21:52;12.41;87.52
66019;HTU21D;52787;51.084;5.816;2023-11-21T14:24:18;12.41;87.46
66019;HTU21D;52787;51.084;5.816;2023-11-21T14:26:46;12.40;87.35
66019;HTU21D;52787;51.084;5.816;2023-11-21T14:29:13;12.36;87.35
66019;HTU21D;52787;51.084;5.816;2023-11-21T14:31:42;12.36;87.48
66019;HTU21D;52787;51.084;5.816;2023-11-21T14:34:12;12.38;87.34
66019;HTU21D;52787;51.084;5.816;2023-11-21T14:36:39;12.36;87.42
66019;HTU21D;52787;51.084;5.816;2023-11-21T14:39:06;12.40;87.36
66019;HTU21D;52787;51.084;5.816;2023-11-21T14:41:35;12.45;87.13
66019;HTU21D;52787;51.084;5.816;2023-11-21T14:44:01;12.51;86.90
66019;HTU21D;52787;51.084;5.816;2023-11-21T14:46:33;12.57;86.77
66019;HTU21D;52787;51.084;5.816;2023-11-21T14:49:00;12.58;86.53
66019;HTU21D;52787;51.084;5.816;2023-11-21T14:51:46;12.56;86.54
66019;HTU21D;52787;51.084;5.816;2023-11-21T14:54:32;12.45;86.71
66019;HTU21D;52787;51.084;5.816;2023-11-21T14:57:10;12.37;87.15
66019;HTU21D;52787;51.084;5.816;2023-11-21T14:59:49;12.28;87.23
66019;HTU21D;52787;51.084;5.816;2023-11-21T15:02:18;12.17;87.77
66019;HTU21D;52787;51.084;5.816;2023-11-21T15:04:48;12.17;88.12
66019;HTU21D;52787;51.084;5.816;2023-11-21T15:07:18;12.19;88.12
66019;HTU21D;52787;51.084;5.816;2023-11-21T15:09:47;12.20;88.20
66019;HTU21D;52787;51.084;5.816;2023-11-21T15:12:15;12.19;88.10
66019;HTU21D;52787;51.084;5.816;2023-11-21T15:17:15;12.16;88.21
66019;HTU21D;52787;51.084;5.816;2023-11-21T15:19:50;12.15;88.25
66019;HTU21D;52787;51.084;5.816;2023-11-21T15:22:16;12.13;88.28
66019;HTU21D;52787;51.084;5.816;2023-11-21T15:24:42;12.13;88.38
66019;HTU21D;52787;51.084;5.816;2023-11-21T15:27:12;12.06;88.29
66019;HTU21D;52787;51.084;5.816;2023-11-21T15:29:39;12.04;88.57
66019;HTU21D;52787;51.084;5.816;2023-11-21T15:32:06;12.05;88.71
66019;HTU21D;52787;51.084;5.816;2023-11-21T15:34:33;12.08;88.50
66019;HTU21D;52787;51.084;5.816;2023-11-21T15:37:00;12.04;88.35